createdAt,value
2023-04-05T00:03:06.792Z,97203.97
2023-04-05T00:13:14.207Z,97192.59
2023-04-05T00:18:06.208Z,97193.13
2023-04-05T00:28:18.016Z,97186.00
2023-04-05T00:33:11.650Z,97187.13
2023-04-05T00:38:03.407Z,97179.69
2023-04-05T00:42:55.073Z,97174.50
2023-04-05T00:47:46.861Z,97167.88
2023-04-05T00:52:38.698Z,97169.03
2023-04-05T01:02:45.822Z,97163.84
2023-04-05T01:07:51.081Z,97141.53
2023-04-05T01:17:49.819Z,97135.06
2023-04-05T01:23:17.998Z,97135.22
2023-04-05T01:28:43.100Z,97130.56
2023-04-05T01:34:06.895Z,97122.81
2023-04-05T01:39:02.699Z,97130.72
2023-04-05T01:43:54.387Z,97117.78
2023-04-05T01:48:46.449Z,97122.50
2023-04-05T01:53:38.124Z,97113.44
2023-04-05T01:58:29.816Z,97114.69
2023-04-05T02:03:22.808Z,97117.31
2023-04-05T02:08:14.559Z,97110.84
2023-04-05T02:13:06.802Z,97106.16
2023-04-05T02:18:01.969Z,97100.66
2023-04-05T02:22:54.178Z,97098.56
2023-04-05T02:27:46.423Z,97096.13
2023-04-05T02:32:38.102Z,97089.84
2023-04-05T02:37:29.877Z,97100.34
2023-04-05T02:42:21.640Z,97085.97
2023-04-05T02:47:17.225Z,97081.59
2023-04-05T02:52:08.889Z,97085.31
2023-04-05T02:57:02.300Z,97081.59
2023-04-05T03:01:54.008Z,97073.22
2023-04-05T03:06:48.601Z,97068.00
2023-04-05T03:11:40.475Z,97064.47
2023-04-05T03:16:32.358Z,97066.69
2023-04-05T03:21:24.100Z,97065.22
2023-04-05T03:26:16.072Z,97054.25
2023-04-05T03:31:07.831Z,97060.38
2023-04-05T03:36:00.101Z,97056.81
2023-04-05T03:40:51.835Z,97056.78
2023-04-05T03:45:43.669Z,97053.75
2023-04-05T03:50:35.450Z,97050.03
2023-04-05T04:00:34.042Z,97050.66
2023-04-05T04:05:26.141Z,97047.88
2023-04-05T04:10:17.950Z,97048.25
2023-04-05T04:15:10.130Z,97049.81
2023-04-05T04:20:07.727Z,97053.41
2023-04-05T04:30:14.876Z,97042.44
2023-04-05T04:35:07.021Z,97047.22
2023-04-05T04:40:03.431Z,97051.72
2023-04-05T04:44:58.057Z,97049.19
2023-04-05T04:49:49.735Z,97049.50
2023-04-05T04:54:42.715Z,97057.44
2023-04-05T04:59:34.485Z,97058.66
2023-04-05T05:04:28.278Z,97056.03
2023-04-05T05:09:20.627Z,97055.28
2023-04-05T05:14:13.015Z,97061.34
2023-04-05T05:19:04.775Z,97048.03
2023-04-05T05:23:57.229Z,97056.16
2023-04-05T05:28:49.489Z,97048.53
2023-04-05T05:33:41.151Z,97052.81
2023-04-05T05:38:32.865Z,97042.63
2023-04-05T05:58:46.288Z,97043.19
2023-04-05T06:03:39.741Z,97044.44
2023-04-05T06:08:36.144Z,97047.22
2023-04-05T06:13:31.100Z,97047.81
2023-04-05T06:18:24.536Z,97055.47
2023-04-05T06:23:16.809Z,97066.38
2023-04-05T06:28:12.432Z,97067.16
2023-04-05T06:33:08.022Z,97075.25
2023-04-05T06:37:59.805Z,97071.09
2023-04-05T06:43:01.996Z,97065.25
2023-04-05T06:53:06.980Z,97069.59
2023-04-05T06:57:59.941Z,97069.13
2023-04-05T07:02:52.644Z,97068.13
2023-04-05T07:12:55.302Z,97063.72
2023-04-05T07:28:00.231Z,97066.91
2023-04-05T07:32:53.470Z,97075.00
2023-04-05T07:37:46.465Z,97073.66
2023-04-05T07:42:40.001Z,97068.00
2023-04-05T07:52:43.632Z,97091.59
2023-04-05T07:57:35.706Z,97080.22
2023-04-05T08:12:40.435Z,97090.31
2023-04-05T08:22:38.232Z,97070.75
2023-04-05T08:27:38.145Z,97077.66
2023-04-05T08:32:30.157Z,97076.13
2023-04-05T08:37:30.122Z,97068.03
2023-04-05T08:42:41.900Z,97075.88
2023-04-05T08:52:50.002Z,97074.19
2023-04-05T09:08:11.558Z,97076.00
2023-04-05T09:13:05.492Z,97075.03
2023-04-05T09:17:58.453Z,97090.31
2023-04-05T09:22:50.970Z,97086.47
2023-04-05T09:33:03.018Z,97075.41
2023-04-05T09:43:04.850Z,97104.16
2023-04-05T10:19:33.463Z,97090.22
2023-04-05T10:35:32.821Z,97083.47
2023-04-05T11:01:07.907Z,97074.81
2023-04-05T11:17:37.996Z,97076.03
2023-04-05T11:22:32.734Z,97052.00
2023-04-05T11:27:49.263Z,97065.13
2023-04-05T11:32:47.777Z,97041.59
2023-04-05T11:38:02.276Z,97046.25
2023-04-05T11:53:27.983Z,97033.41
2023-04-05T12:14:16.840Z,97023.97
2023-04-05T12:19:09.667Z,97017.34
2023-04-05T12:24:01.979Z,97015.56
2023-04-05T12:49:44.866Z,96997.88
2023-04-05T12:54:39.120Z,96997.50
2023-04-05T12:59:37.013Z,96992.84
2023-04-05T13:04:38.931Z,96978.16
2023-04-05T13:09:37.081Z,96975.72
2023-04-05T13:19:37.161Z,96961.94
2023-04-05T13:24:28.862Z,96949.00
2023-04-05T13:34:26.465Z,96940.19
2023-04-05T13:44:24.353Z,96942.28
2023-04-05T13:54:23.962Z,96932.22
2023-04-05T13:59:16.918Z,96930.22
2023-04-05T14:04:09.751Z,96929.81
2023-04-05T14:09:01.482Z,96921.59
2023-04-05T14:13:53.338Z,96922.47
2023-04-05T14:18:45.346Z,96925.25
2023-04-05T14:28:43.429Z,96914.00
2023-04-05T14:33:35.179Z,96914.47
2023-04-05T14:43:32.810Z,96909.78
2023-04-05T14:48:24.868Z,96907.06
2023-04-05T14:53:16.642Z,96902.56
2023-04-05T14:58:08.394Z,96897.47
2023-04-05T15:03:00.319Z,96901.19
2023-04-05T15:28:39.068Z,96899.25
2023-04-05T15:38:37.555Z,96893.44
2023-04-05T15:43:31.853Z,96892.03
2023-04-05T15:58:36.918Z,96892.22
2023-04-05T16:03:29.215Z,96885.47
2023-04-05T16:08:29.329Z,96880.28
2023-04-05T16:13:21.074Z,96881.22
2023-04-05T16:18:14.281Z,96872.72
2023-04-05T16:23:06.181Z,96880.56
2023-04-05T16:27:57.942Z,96880.44
2023-04-05T16:38:03.167Z,96892.56
2023-04-05T16:53:08.183Z,96883.97
2023-04-05T16:57:59.929Z,96883.38
2023-04-05T17:08:06.925Z,96886.78
2023-04-05T17:12:58.676Z,96890.78
2023-04-05T17:17:51.645Z,96887.72
2023-04-05T17:22:43.434Z,96892.13
2023-04-05T17:27:35.269Z,96889.44
2023-04-05T17:37:35.691Z,96896.06
2023-04-05T17:42:27.512Z,96905.00
2023-04-05T17:47:19.233Z,96909.03
2023-04-05T17:52:13.938Z,96910.66
2023-04-05T17:57:07.018Z,96909.47
2023-04-05T18:07:14.472Z,96921.34
2023-04-05T18:12:06.670Z,96925.16
2023-04-05T18:17:02.786Z,96932.19
2023-04-05T18:21:56.015Z,96941.00
2023-04-05T18:26:49.955Z,96935.91
2023-04-05T18:31:41.963Z,96949.69
2023-04-05T18:36:33.738Z,96955.03
2023-04-05T18:41:26.647Z,96961.38
2023-04-05T18:46:19.458Z,96967.13
2023-04-05T18:51:11.374Z,96966.84
2023-04-05T18:56:03.639Z,96975.63
2023-04-05T19:00:55.850Z,96967.31
2023-04-05T19:05:53.328Z,96974.78
2023-04-05T19:10:46.171Z,96981.63
2023-04-05T19:15:38.471Z,96978.53
2023-04-05T19:20:30.323Z,96985.25
2023-04-05T19:25:22.059Z,96993.34
2023-04-05T19:30:14.352Z,96996.06
2023-04-05T19:35:11.190Z,96993.53
2023-04-05T19:40:12.981Z,96989.94
2023-04-05T19:45:08.602Z,96995.88
2023-04-05T19:50:01.558Z,97004.88
2023-04-05T19:54:53.286Z,96996.75
2023-04-05T19:59:53.503Z,97008.13
2023-04-05T20:04:45.278Z,97003.66
2023-04-05T20:09:38.520Z,96999.09
2023-04-05T20:14:43.738Z,96992.03
2023-04-05T20:19:39.540Z,96991.56
2023-04-05T20:24:31.419Z,96994.63
2023-04-05T20:29:32.741Z,96985.66
2023-04-05T20:34:31.252Z,96983.31
2023-04-05T20:39:31.276Z,96995.38
2023-04-05T20:44:24.267Z,96990.25
2023-04-05T20:49:16.529Z,96991.06
2023-04-05T20:54:10.360Z,96986.66
2023-04-05T20:59:02.111Z,96985.97
2023-04-05T21:09:01.653Z,96992.44
2023-04-05T21:13:54.092Z,97006.44
2023-04-05T21:18:45.867Z,97003.63
2023-04-05T21:23:37.598Z,97002.97
2023-04-05T21:28:29.348Z,96997.50
2023-04-05T21:33:21.164Z,97008.47
2023-04-05T21:38:15.644Z,97010.47
2023-04-05T21:43:07.782Z,97009.38
2023-04-05T21:47:59.503Z,97016.84
2023-04-05T21:52:51.254Z,97009.94
2023-04-05T21:57:42.990Z,97016.25
2023-04-05T22:02:37.798Z,97016.47
2023-04-05T22:12:36.012Z,97024.19
2023-04-05T22:17:28.877Z,97025.50
2023-04-05T22:22:20.769Z,97024.53
2023-04-05T22:27:12.818Z,97026.19
2023-04-05T22:32:04.997Z,97023.13
2023-04-05T22:36:56.756Z,97014.06
2023-04-05T22:41:49.014Z,97014.41
2023-04-05T22:46:40.973Z,97010.38
2023-04-05T22:51:32.771Z,97010.50
2023-04-05T22:56:24.751Z,97017.09
2023-04-05T23:01:20.679Z,97020.28
2023-04-05T23:06:13.912Z,97024.28
2023-04-05T23:21:31.999Z,97008.59
2023-04-05T23:26:24.701Z,97007.75
2023-04-05T23:31:16.542Z,97002.41
2023-04-05T23:36:09.307Z,96999.16
2023-04-05T23:41:01.566Z,97016.75
2023-04-05T23:46:16.424Z,97014.94
2023-04-05T23:51:08.296Z,97009.47
